Time;durP1;ratioP1;P1;durP2;ratioP2;P2;SDS_P1;SDS_P2;PMS_P1;PMS_P2;Temp;Humidity;BMP_temperature;BMP_pressure;BME280_temperature;BME280_humidity;BME280_pressure;Samples;Min_cycle;Max_cycle;Signal;HPM_P1;HPM_P2
2021/05/13 00:02:02;;;;;;;7.45;5.45;;;11.10;92.90;;;;;;5056068;28;20025;-88
2021/05/13 00:04:28;;;;;;;8.90;5.97;;;11.10;93.00;;;;;;5056129;28;20378;-86
2021/05/13 00:06:55;;;;;;;10.02;7.38;;;11.10;92.80;;;;;;5056996;28;20025;-87
2021/05/13 00:09:20;;;;;;;7.78;7.00;;;11.00;92.90;;;;;;5063412;28;20060;-88
2021/05/13 00:11:49;;;;;;;11.30;6.55;;;11.00;92.80;;;;;;5054467;28;20071;-91
2021/05/13 00:14:16;;;;;;;8.80;6.95;;;11.00;92.70;;;;;;5055912;28;20378;-88
2021/05/13 00:16:43;;;;;;;7.78;6.00;;;10.90;92.70;;;;;;5042456;28;20486;-89
2021/05/13 00:19:12;;;;;;;9.83;7.57;;;10.90;92.60;;;;;;5057181;28;20033;-89
2021/05/13 00:21:40;;;;;;;9.90;6.97;;;10.90;92.50;;;;;;5061064;28;20031;-90
2021/05/13 00:24:07;;;;;;;9.20;7.65;;;10.80;92.50;;;;;;5048461;28;20028;-90
2021/05/13 00:26:47;;;;;;;10.05;7.85;;;10.80;92.40;;;;;;5043678;28;20041;-88
2021/05/13 00:29:27;;;;;;;12.02;6.97;;;10.70;92.40;;;;;;5051928;28;20040;-89
2021/05/13 00:31:53;;;;;;;14.95;8.38;;;10.70;92.60;;;;;;5077013;28;20100;-90
2021/05/13 00:34:18;;;;;;;13.65;8.82;;;10.60;92.70;;;;;;5077355;28;20012;-89
2021/05/13 00:36:44;;;;;;;11.90;8.32;;;10.60;92.90;;;;;;5066143;28;20055;-89
2021/05/13 00:39:10;;;;;;;11.63;8.40;;;10.70;93.00;;;;;;5055366;28;20387;-87
2021/05/13 00:41:39;;;;;;;10.13;7.95;;;10.70;93.10;;;;;;5057191;28;20012;-88
2021/05/13 00:44:07;;;;;;;11.73;8.18;;;10.80;93.30;;;;;;5057174;28;20013;-90
2021/05/13 00:46:34;;;;;;;10.13;8.45;;;10.80;93.40;;;;;;5057193;28;20040;-89
2021/05/13 00:49:19;;;;;;;10.60;9.60;;;10.70;93.40;;;;;;5056709;28;20071;-89
2021/05/13 00:51:45;;;;;;;11.77;9.98;;;10.60;93.50;;;;;;5044375;28;20045;-89
2021/05/13 00:54:12;;;;;;;12.93;10.00;;;10.60;93.60;;;;;;5054834;28;20116;-90
2021/05/13 00:56:38;;;;;;;14.02;11.13;;;10.60;93.70;;;;;;5032668;28;20051;-87
2021/05/13 00:59:09;;;;;;;14.77;11.68;;;10.60;93.70;;;;;;5032189;28;20018;-87
2021/05/13 01:04:17;;;;;;;16.67;11.65;;;10.50;93.70;;;;;;5036203;28;20034;-88
2021/05/13 01:06:44;;;;;;;13.82;11.00;;;10.40;93.60;;;;;;5037238;28;20036;-88
2021/05/13 01:09:11;;;;;;;13.60;11.68;;;10.40;93.70;;;;;;5057069;28;20094;-87
2021/05/13 01:11:42;;;;;;;13.73;11.05;;;10.30;93.80;;;;;;5057868;28;20036;-88
2021/05/13 01:14:22;;;;;;;14.45;12.50;;;10.30;93.90;;;;;;5055938;28;20029;-87
2021/05/13 01:16:53;;;;;;;13.30;10.35;;;10.30;93.90;;;;;;5054713;28;20029;-87
2021/05/13 01:19:19;;;;;;;14.00;11.38;;;10.30;94.00;;;;;;5062313;28;20021;-88
2021/05/13 01:21:45;;;;;;;15.07;11.43;;;10.30;94.00;;;;;;5053821;28;20543;-89
2021/05/13 01:24:14;;;;;;;15.07;12.55;;;10.30;94.00;;;;;;5070698;28;20032;-87
2021/05/13 01:26:47;;;;;;;16.88;12.95;;;10.20;94.00;;;;;;5067383;28;20124;-88
2021/05/13 01:29:24;;;;;;;18.02;13.88;;;10.20;94.00;;;;;;5025230;28;20025;-86
2021/05/13 01:31:51;;;;;;;20.42;15.20;;;10.10;93.90;;;;;;5031587;28;20457;-86
2021/05/13 01:34:17;;;;;;;22.70;17.80;;;10.10;94.00;;;;;;5058189;28;20025;-87
2021/05/13 01:36:44;;;;;;;21.95;18.08;;;10.00;94.00;;;;;;5049127;28;20020;-87
2021/05/13 01:39:11;;;;;;;22.42;18.50;;;10.00;94.10;;;;;;5048475;28;20018;-89
2021/05/13 01:41:39;;;;;;;21.23;15.43;;;10.00;94.20;;;;;;5045559;28;20017;-88
2021/05/13 01:44:05;;;;;;;21.58;16.70;;;9.90;94.10;;;;;;5072552;28;20032;-86
2021/05/13 01:46:32;;;;;;;23.52;18.08;;;9.90;94.20;;;;;;5064110;28;20052;-86
2021/05/13 01:48:58;;;;;;;20.50;15.13;;;9.90;94.30;;;;;;5029201;28;20022;-88
2021/05/13 01:51:24;;;;;;;18.73;15.75;;;9.90;94.40;;;;;;5056159;28;20055;-90
2021/05/13 01:53:50;;;;;;;20.05;16.90;;;9.90;94.50;;;;;;5059493;28;20029;-87
2021/05/13 01:56:16;;;;;;;15.90;13.95;;;10.00;94.60;;;;;;5044448;28;20431;-91
2021/05/13 01:58:42;;;;;;;15.23;12.02;;;10.00;94.60;;;;;;5057867;28;20021;-87
2021/05/13 02:01:11;;;;;;;15.80;12.45;;;10.00;94.50;;;;;;5057397;28;20056;-87
2021/05/13 02:03:37;;;;;;;15.95;10.63;;;10.00;94.50;;;;;;5057943;28;20052;-88
2021/05/13 02:06:06;;;;;;;11.57;9.80;;;10.10;94.30;;;;;;5058219;28;20386;-87
2021/05/13 02:08:32;;;;;;;11.85;10.55;;;10.10;94.30;;;;;;5040060;28;20025;-87
2021/05/13 02:10:58;;;;;;;12.27;9.75;;;10.10;94.20;;;;;;5052240;28;20028;-85
2021/05/13 02:13:25;;;;;;;14.23;11.25;;;10.20;94.10;;;;;;5056495;28;20018;-84
2021/05/13 02:15:51;;;;;;;14.15;11.80;;;10.20;94.10;;;;;;5054364;28;20167;-86
2021/05/13 02:18:18;;;;;;;15.23;12.13;;;10.30;94.10;;;;;;5058919;28;20115;-86
2021/05/13 02:20:45;;;;;;;13.93;11.77;;;10.30;94.00;;;;;;5056013;28;20032;-84
2021/05/13 02:23:11;;;;;;;15.02;11.10;;;10.40;94.00;;;;;;5072892;28;20020;-85
2021/05/13 02:25:38;;;;;;;17.95;11.10;;;10.50;93.90;;;;;;5059891;28;20041;-86
2021/05/13 02:28:04;;;;;;;13.43;11.57;;;10.50;93.90;;;;;;5041761;28;20021;-85
2021/05/13 02:30:30;;;;;;;14.15;11.57;;;10.60;93.70;;;;;;5039217;28;20033;-85
2021/05/13 02:32:56;;;;;;;14.48;11.82;;;10.70;93.60;;;;;;5056954;28;20021;-85
2021/05/13 02:35:22;;;;;;;17.08;12.70;;;10.70;93.70;;;;;;5049862;28;20483;-86
2021/05/13 02:37:48;;;;;;;16.17;12.35;;;10.80;93.30;;;;;;5032379;28;20442;-87
2021/05/13 02:40:16;;;;;;;18.55;13.60;;;10.90;93.10;;;;;;5039157;28;20029;-87
2021/05/13 02:42:42;;;;;;;;;;;11.00;92.90;;;;;;5040475;28;20032;-86
2021/05/13 02:45:09;;;;;;;15.98;12.63;;;11.10;92.90;;;;;;5058387;28;20400;-90
2021/05/13 02:47:35;;;;;;;20.65;14.98;;;11.20;92.80;;;;;;5057536;28;20086;-89
2021/05/13 02:50:02;;;;;;;17.63;14.35;;;11.30;92.50;;;;;;5056108;28;20041;-88
2021/05/13 02:52:28;;;;;;;21.52;16.75;;;11.40;92.30;;;;;;5056104;28;20375;-89
2021/05/13 02:54:54;;;;;;;21.33;14.95;;;11.50;92.00;;;;;;5039254;28;20036;-89
2021/05/13 02:57:20;;;;;;;21.55;16.52;;;11.50;91.70;;;;;;5058513;28;20029;-88
2021/05/13 02:59:53;;;;;;;26.42;17.00;;;11.60;91.60;;;;;;5070314;28;20094;-90
2021/05/13 03:02:19;;;;;;;25.73;17.80;;;11.60;91.60;;;;;;5041032;28;20059;-88
2021/05/13 03:04:45;;;;;;;28.05;17.67;;;11.60;91.60;;;;;;5056893;28;20075;-88
2021/05/13 03:07:12;;;;;;;28.90;19.77;;;11.60;91.50;;;;;;5056240;28;20032;-89
2021/05/13 03:09:55;;;;;;;23.73;17.20;;;11.70;91.30;;;;;;5036993;28;20021;-88
2021/05/13 03:12:21;;;;;;;26.27;18.38;;;11.80;91.20;;;;;;5036213;28;20033;-87
2021/05/13 03:14:47;;;;;;;28.40;19.23;;;11.90;91.10;;;;;;5052282;28;20508;-88
2021/05/13 03:17:12;;;;;;;28.00;18.83;;;12.00;90.90;;;;;;5057538;28;20055;-87
2021/05/13 03:19:47;;;;;;;27.05;19.42;;;12.10;90.50;;;;;;5061124;28;20017;-87
2021/05/13 03:22:16;;;;;;;32.80;22.13;;;12.10;90.50;;;;;;5052608;28;20036;-88
2021/05/13 03:24:52;;;;;;;31.05;20.77;;;12.20;90.20;;;;;;5066661;28;20190;-88
2021/05/13 03:29:56;;;;;;;25.88;17.10;;;12.30;89.50;;;;;;5058091;28;20041;-87
2021/05/13 03:32:23;;;;;;;22.85;16.20;;;12.30;89.00;;;;;;5059832;28;20013;-87
2021/05/13 03:34:50;;;;;;;24.48;15.75;;;12.40;89.50;;;;;;5064461;28;20047;-88
2021/05/13 03:37:16;;;;;;;21.92;14.20;;;12.40;88.80;;;;;;5060494;28;20031;-90
2021/05/13 03:39:42;;;;;;;23.60;14.85;;;12.40;88.00;;;;;;5069144;28;20041;-89
2021/05/13 03:42:08;;;;;;;20.73;14.93;;;12.50;87.90;;;;;;5075310;28;20021;-89
2021/05/13 03:44:33;;;;;;;17.17;13.55;;;12.60;87.90;;;;;;5060359;28;20029;-89
2021/05/13 03:46:59;;;;;;;19.50;15.05;;;12.70;87.70;;;;;;5055918;28;20061;-88
2021/05/13 03:49:25;;;;;;;19.05;16.17;;;12.70;86.50;;;;;;5049461;28;20018;-90
2021/05/13 03:51:51;;;;;;;17.95;15.93;;;12.60;86.70;;;;;;5036409;28;20497;-88
2021/05/13 03:54:17;;;;;;;19.20;15.85;;;12.50;87.30;;;;;;5055257;28;20096;-89
2021/05/13 03:56:43;;;;;;;21.65;18.88;;;12.50;87.90;;;;;;5056484;28;20481;-89
2021/05/13 03:59:14;;;;;;;20.42;17.55;;;12.60;87.90;;;;;;5056137;28;20017;-86
2021/05/13 04:04:11;;;;;;;22.08;19.35;;;12.70;87.50;;;;;;5054839;28;20021;-89
2021/05/13 04:06:38;;;;;;;21.58;19.13;;;12.70;87.10;;;;;;5054278;28;20025;-89
2021/05/13 04:09:08;;;;;;;39.60;26.35;;;12.70;87.50;;;;;;5070801;28;20032;-89
2021/05/13 04:11:38;;;;;;;35.63;27.00;;;12.70;87.30;;;;;;5043124;28;20048;-89
2021/05/13 04:14:08;;;;;;;25.92;19.90;;;12.70;87.50;;;;;;5056845;28;20075;-88
2021/05/13 04:16:37;;;;;;;34.58;25.25;;;12.80;87.60;;;;;;5069090;28;20017;-89
2021/05/13 04:19:03;;;;;;;29.77;22.25;;;12.70;87.00;;;;;;5073744;28;20052;-90
2021/05/13 04:21:29;;;;;;;29.95;21.02;;;12.80;87.00;;;;;;5066575;28;20025;-90
2021/05/13 04:23:56;;;;;;;24.98;20.85;;;12.90;86.40;;;;;;5043826;28;20032;-88
2021/05/13 04:26:22;;;;;;;29.73;19.95;;;13.00;86.20;;;;;;5059836;28;20053;-86
2021/05/13 04:28:48;;;;;;;25.60;19.50;;;13.10;85.40;;;;;;5024736;28;20021;-87
2021/05/13 04:31:14;;;;;;;20.40;18.20;;;13.20;85.00;;;;;;5057910;28;20120;-88
2021/05/13 04:33:40;;;;;;;24.45;18.52;;;13.30;84.50;;;;;;5039236;28;20395;-91
2021/05/13 04:36:06;;;;;;;23.63;17.58;;;13.50;84.10;;;;;;5038230;28;20036;-90
2021/05/13 04:38:33;;;;;;;25.05;18.40;;;13.60;83.10;;;;;;5066115;28;20024;-91
2021/05/13 04:40:59;;;;;;;24.40;20.47;;;13.60;82.60;;;;;;5042613;28;20368;-87
2021/05/13 04:43:32;;;;;;;23.02;18.42;;;13.60;82.80;;;;;;5061682;28;20266;-88
2021/05/13 04:45:58;;;;;;;21.00;17.00;;;13.60;82.50;;;;;;5057674;28;20013;-90
2021/05/13 04:48:26;;;;;;;23.52;16.17;;;13.70;81.90;;;;;;5056029;28;20036;-87
2021/05/13 04:50:52;;;;;;;16.70;14.40;;;13.70;82.00;;;;;;5054338;28;20072;-86
2021/05/13 04:53:18;;;;;;;22.08;16.05;;;14.10;81.40;;;;;;5037957;28;20496;-86
2021/05/13 04:55:44;;;;;;;18.23;15.05;;;14.90;80.00;;;;;;5057308;28;20382;-86
2021/05/13 04:58:11;;;;;;;16.58;11.75;;;15.80;75.80;;;;;;5055147;28;20036;-88
2021/05/13 05:00:37;;;;;;;16.45;13.85;;;16.60;69.40;;;;;;5036846;28;20465;-88
2021/05/13 05:03:04;;;;;;;11.73;10.43;;;17.20;68.20;;;;;;5055903;28;20021;-88
2021/05/13 05:05:35;;;;;;;18.42;10.85;;;17.70;64.00;;;;;;5036640;28;20021;-88
2021/05/13 05:08:07;;;;;;;13.63;11.75;;;18.30;62.50;;;;;;5038153;28;20041;-88
2021/05/13 05:10:33;;;;;;;15.73;12.32;;;18.80;60.40;;;;;;5046755;28;20025;-89
2021/05/13 05:12:59;;;;;;;13.85;11.30;;;19.30;58.30;;;;;;5037429;28;20033;-89
2021/05/13 05:15:25;;;;;;;13.77;11.20;;;19.60;56.20;;;;;;5058449;28;20021;-88
2021/05/13 05:17:54;;;;;;;19.48;13.98;;;19.70;55.00;;;;;;5046181;28;20052;-89
2021/05/13 05:20:21;;;;;;;12.18;10.52;;;20.40;54.10;;;;;;5056832;28;20020;-90
2021/05/13 05:22:47;;;;;;;13.75;11.02;;;21.20;52.80;;;;;;5062040;28;20071;-87
2021/05/13 05:25:13;;;;;;;14.32;10.60;;;21.90;50.50;;;;;;5070261;28;21194;-88
2021/05/13 05:27:39;;;;;;;15.60;10.55;;;22.80;49.20;;;;;;5063376;28;20108;-87
2021/05/13 05:30:06;;;;;;;12.77;11.48;;;23.20;46.10;;;;;;5059310;28;20052;-86
2021/05/13 05:32:32;;;;;;;11.82;10.63;;;23.60;46.30;;;;;;5040593;28;20021;-87
2021/05/13 05:35:03;;;;;;;10.57;9.43;;;24.40;45.20;;;;;;5059652;28;20037;-87
2021/05/13 05:37:32;;;;;;;15.38;13.32;;;24.90;42.30;;;;;;5058002;28;20006;-85
2021/05/13 05:40:00;;;;;;;14.48;13.07;;;24.10;42.40;;;;;;5044286;28;20085;-85
2021/05/13 05:42:26;;;;;;;12.75;11.48;;;23.40;43.50;;;;;;5066223;28;20029;-84
2021/05/13 05:44:52;;;;;;;15.40;11.25;;;22.90;43.80;;;;;;5063141;28;20194;-88
2021/05/13 05:47:18;;;;;;;12.30;11.10;;;22.60;44.80;;;;;;5036801;28;20537;-88
2021/05/13 05:49:45;;;;;;;13.27;11.95;;;23.10;44.50;;;;;;5049390;28;20029;-87
2021/05/13 05:52:11;;;;;;;13.13;11.02;;;23.60;44.20;;;;;;5059269;28;20033;-86
2021/05/13 05:54:37;;;;;;;18.10;12.43;;;25.00;42.10;;;;;;5058665;28;20447;-87
2021/05/13 05:57:03;;;;;;;15.50;11.32;;;26.10;39.60;;;;;;5058763;28;20036;-86
2021/05/13 05:59:29;;;;;;;11.80;9.70;;;26.70;39.80;;;;;;5059471;28;20020;-89
2021/05/13 06:01:58;;;;;;;10.85;9.02;;;27.80;37.80;;;;;;5065575;28;20033;-87
2021/05/13 06:04:24;;;;;;;10.05;8.95;;;29.10;36.60;;;;;;5044324;28;20037;-89
2021/05/13 06:06:49;;;;;;;10.40;8.50;;;29.30;34.80;;;;;;5041274;28;20141;-87
2021/05/13 06:09:15;;;;;;;8.30;6.60;;;30.00;34.30;;;;;;5043451;28;20021;-87
2021/05/13 06:11:41;;;;;;;7.63;6.80;;;31.10;33.30;;;;;;5059056;28;20039;-88
2021/05/13 06:14:07;;;;;;;7.25;6.53;;;32.10;32.20;;;;;;5041233;28;20028;-87
2021/05/13 06:16:32;;;;;;;7.90;6.25;;;31.90;31.10;;;;;;5065361;28;20063;-89
2021/05/13 06:18:59;;;;;;;7.90;6.80;;;31.40;31.00;;;;;;5071202;28;20467;-89
2021/05/13 06:21:25;;;;;;;8.10;7.30;;;30.40;32.30;;;;;;5078212;28;20029;-90
2021/05/13 06:23:54;;;;;;;6.13;5.45;;;30.30;32.80;;;;;;5076993;28;20032;-88
2021/05/13 06:26:29;;;;;;;13.20;5.75;;;31.10;31.90;;;;;;5061784;28;20059;-88
2021/05/13 06:28:55;;;;;;;5.72;4.95;;;31.40;31.10;;;;;;5041098;28;20025;-88
2021/05/13 06:31:22;;;;;;;10.20;4.17;;;32.50;30.70;;;;;;5057882;28;20025;-90
2021/05/13 06:33:48;;;;;;;;;;;33.10;29.50;;;;;;5056523;28;20021;-90
2021/05/13 06:36:14;;;;;;;8.85;5.35;;;33.40;31.40;;;;;;5056857;28;20385;-86
2021/05/13 06:38:40;;;;;;;;;;;33.50;29.40;;;;;;5059212;28;20029;-85
2021/05/13 06:41:06;;;;;;;7.85;3.88;;;33.90;31.20;;;;;;5057980;28;19920;-82
2021/05/13 06:43:33;;;;;;;7.85;4.10;;;33.80;28.30;;;;;;5052112;28;20444;-81
2021/05/13 06:46:00;;;;;;;6.30;3.45;;;33.80;28.00;;;;;;5052213;28;20028;-81
2021/05/13 06:48:26;;;;;;;6.00;3.40;;;34.00;27.80;;;;;;5036843;28;20116;-80
2021/05/13 06:50:52;;;;;;;9.93;3.50;;;34.40;27.60;;;;;;5054882;28;20064;-83
2021/05/13 06:53:18;;;;;;;8.52;3.33;;;34.70;27.10;;;;;;5055019;28;20124;-83
2021/05/13 06:55:45;;;;;;;5.10;3.30;;;34.80;27.20;;;;;;5054697;28;20044;-84
2021/05/13 06:58:11;;;;;;;9.40;2.90;;;34.90;27.20;;;;;;5054934;28;20315;-83
2021/05/13 07:00:46;;;;;;;5.93;3.45;;;35.40;26.70;;;;;;5037366;28;20490;-82
2021/05/13 07:03:16;;;;;;;5.97;3.20;;;36.10;26.50;;;;;;5039707;28;20021;-84
2021/05/13 07:05:42;;;;;;;8.63;3.08;;;36.10;25.70;;;;;;5046525;28;20101;-82
2021/05/13 07:08:09;;;;;;;;;;;36.30;25.80;;;;;;5054065;28;20449;-83
2021/05/13 07:10:36;;;;;;;7.53;3.05;;;36.50;27.30;;;;;;5037539;28;19909;-84
2021/05/13 07:13:03;;;;;;;7.60;2.45;;;36.60;25.40;;;;;;5036869;28;20502;-85
2021/05/13 07:15:29;;;;;;;6.70;3.45;;;36.70;25.40;;;;;;5054296;28;20021;-84
2021/05/13 07:17:58;;;;;;;3.40;2.05;;;36.90;25.20;;;;;;5055107;28;20029;-82
2021/05/13 07:20:27;;;;;;;3.75;2.28;;;37.30;24.90;;;;;;5041249;28;20025;-84
2021/05/13 07:22:53;;;;;;;6.55;2.80;;;35.90;24.80;;;;;;5042744;28;20026;-81
2021/05/13 07:25:20;;;;;;;8.23;2.58;;;34.70;25.10;;;;;;5053755;28;20035;-81
2021/05/13 07:27:47;;;;;;;5.90;3.25;;;34.30;26.10;;;;;;5054246;28;20553;-84
2021/05/13 07:30:14;;;;;;;4.90;3.53;;;35.20;26.00;;;;;;5054045;28;20037;-83
2021/05/13 07:32:40;;;;;;;8.05;2.83;;;35.70;25.70;;;;;;5045978;28;20018;-84
2021/05/13 07:35:07;;;;;;;6.38;3.35;;;36.30;25.10;;;;;;5049312;28;20100;-84
2021/05/13 07:37:33;;;;;;;;;;;37.00;24.80;;;;;;5054697;28;20104;-84
2021/05/13 07:39:58;;;;;;;;;;;37.60;25.80;;;;;;5054752;28;20433;-82
2021/05/13 07:42:25;;;;;;;5.25;3.22;;;37.50;25.70;;;;;;5054091;28;19977;-80
2021/05/13 07:44:51;;;;;;;4.57;3.30;;;37.70;24.30;;;;;;5037199;28;20053;-83
2021/05/13 07:47:20;;;;;;;3.92;2.17;;;38.30;24.40;;;;;;5055728;28;20017;-83
2021/05/13 07:49:46;;;;;;;3.75;2.28;;;38.70;24.10;;;;;;5054016;28;20051;-84
2021/05/13 07:52:12;;;;;;;10.45;5.85;;;38.60;23.50;;;;;;5054377;28;20060;-81
2021/05/13 07:54:39;;;;;;;4.70;4.10;;;38.20;23.70;;;;;;5055052;28;20029;-84
2021/05/13 07:57:07;;;;;;;6.88;4.32;;;38.00;23.60;;;;;;5036377;28;20463;-82
2021/05/13 07:59:34;;;;;;;6.97;4.43;;;37.90;23.90;;;;;;5055451;28;20035;-83
2021/05/13 08:02:00;;;;;;;5.72;2.92;;;38.20;23.70;;;;;;5045543;28;20395;-84
2021/05/13 08:04:26;;;;;;;6.30;3.03;;;38.20;23.80;;;;;;5048390;28;20087;-81
2021/05/13 08:06:52;;;;;;;4.95;1.90;;;38.00;23.70;;;;;;5054570;28;20102;-83
2021/05/13 08:09:18;;;;;;;4.45;2.72;;;37.70;23.80;;;;;;5055139;28;20052;-83
2021/05/13 08:11:44;;;;;;;5.03;2.83;;;37.40;24.10;;;;;;5055047;28;20059;-84
2021/05/13 08:14:09;;;;;;;5.10;2.15;;;37.60;24.00;;;;;;5053463;28;20390;-84
2021/05/13 08:16:35;;;;;;;9.07;5.40;;;37.90;23.50;;;;;;5052990;28;20032;-84
2021/05/13 08:19:01;;;;;;;5.78;2.40;;;37.30;23.30;;;;;;5035672;28;20020;-83
2021/05/13 08:21:27;;;;;;;5.47;4.05;;;37.60;23.70;;;;;;5020967;28;20502;-84
2021/05/13 08:23:53;;;;;;;7.32;4.80;;;38.20;23.70;;;;;;5053558;28;20028;-84
2021/05/13 08:26:19;;;;;;;5.03;3.13;;;38.90;23.50;;;;;;5055167;28;20060;-85
2021/05/13 08:28:45;;;;;;;4.45;2.47;;;39.00;23.30;;;;;;5042585;28;20119;-83
2021/05/13 08:31:10;;;;;;;10.43;6.47;;;39.30;23.20;;;;;;5070441;28;20020;-84
2021/05/13 08:33:36;;;;;;;9.95;6.65;;;39.30;23.10;;;;;;5062427;28;20091;-84
2021/05/13 08:36:02;;;;;;;5.93;4.57;;;39.40;23.10;;;;;;5053530;28;20377;-84
2021/05/13 08:38:28;;;;;;;8.65;3.05;;;39.20;23.10;;;;;;5053273;28;20030;-83
2021/05/13 08:40:54;;;;;;;3.90;2.45;;;39.40;23.30;;;;;;5053367;28;20050;-84
2021/05/13 08:43:30;;;;;;;3.42;2.83;;;39.20;23.10;;;;;;5052729;28;20025;-83
2021/05/13 08:45:57;;;;;;;6.10;4.68;;;39.00;23.60;;;;;;5053119;28;20167;-86
2021/05/13 08:48:31;;;;;;;3.58;2.80;;;38.10;23.40;;;;;;5034948;28;20017;-84
2021/05/13 08:50:59;;;;;;;7.70;3.58;;;37.60;24.00;;;;;;5034194;28;20466;-84
2021/05/13 08:53:28;;;;;;;6.65;3.90;;;36.60;24.20;;;;;;5052417;28;20496;-86
2021/05/13 08:55:54;;;;;;;6.65;3.83;;;36.60;25.00;;;;;;5052428;28;20028;-85
2021/05/13 08:58:20;;;;;;;9.13;4.30;;;37.20;24.00;;;;;;5053109;28;20033;-85
2021/05/13 09:00:56;;;;;;;8.93;5.13;;;37.80;24.30;;;;;;5052041;28;20297;-84
2021/05/13 09:03:36;;;;;;;5.03;2.95;;;37.50;23.80;;;;;;5052890;28;20021;-83
2021/05/13 09:06:17;;;;;;;10.68;4.43;;;37.10;24.40;;;;;;5053245;28;20021;-82
2021/05/13 09:08:42;;;;;;;7.68;3.70;;;37.80;24.10;;;;;;5052665;28;20027;-83
2021/05/13 09:11:10;;;;;;;4.85;2.13;;;38.20;23.70;;;;;;5052159;28;20017;-83
2021/05/13 09:13:36;;;;;;;8.25;4.40;;;38.80;23.60;;;;;;5038643;28;20505;-84
2021/05/13 09:16:34;;;;;;;9.75;3.47;;;39.20;23.50;;;;;;5052628;28;20021;-83
2021/05/13 09:19:27;;;;;;;7.60;3.42;;;39.10;23.50;;;;;;5052266;28;20033;-84
2021/05/13 09:22:04;;;;;;;7.00;3.90;;;38.30;23.30;;;;;;5052370;28;20367;-84
2021/05/13 09:24:54;;;;;;;6.03;2.72;;;37.60;23.60;;;;;;5034695;28;20514;-82
2021/05/13 09:27:24;;;;;;;6.43;2.88;;;36.60;24.00;;;;;;5053857;28;20045;-82
2021/05/13 09:30:05;;;;;;;7.88;4.50;;;35.20;24.50;;;;;;5051996;28;20513;-84
2021/05/13 09:32:31;;;;;;;11.13;5.90;;;33.60;25.60;;;;;;5052278;28;20381;-85
2021/05/13 09:35:12;;;;;;;9.57;5.70;;;32.00;26.60;;;;;;5052985;28;20025;-82
2021/05/13 09:37:53;;;;;;;9.27;5.63;;;30.50;27.50;;;;;;5053139;28;20440;-83
2021/05/13 09:40:21;;;;;;;6.95;3.78;;;29.40;29.10;;;;;;5038588;28;20057;-83
2021/05/13 09:42:47;;;;;;;7.00;3.85;;;28.70;29.30;;;;;;5052563;28;20108;-83
2021/05/13 09:45:13;;;;;;;4.65;3.22;;;28.20;29.70;;;;;;5054426;28;20053;-81
2021/05/13 09:47:39;;;;;;;9.95;3.67;;;27.70;30.10;;;;;;5053033;28;20021;-85
2021/05/13 09:50:10;;;;;;;10.20;5.70;;;27.30;30.50;;;;;;5053080;28;20060;-84
2021/05/13 09:52:49;;;;;;;8.02;5.13;;;27.00;30.50;;;;;;5052104;28;20017;-84
2021/05/13 09:55:19;;;;;;;8.32;4.72;;;26.40;31.50;;;;;;5051924;28;20017;-83
2021/05/13 09:57:51;;;;;;;10.57;7.00;;;26.10;32.20;;;;;;5052512;28;20031;-83
2021/05/13 10:00:45;;;;;;;8.13;4.28;;;25.40;32.00;;;;;;5038084;28;20032;-82
2021/05/13 10:03:15;;;;;;;17.75;12.85;;;24.70;32.70;;;;;;5051601;28;20044;-85
2021/05/13 10:05:44;;;;;;;15.82;8.85;;;24.00;34.70;;;;;;5052746;28;20025;-86
2021/05/13 10:08:10;;;;;;;12.27;7.80;;;24.10;35.10;;;;;;5033942;28;20025;-82
2021/05/13 10:10:38;;;;;;;10.77;5.13;;;24.10;35.30;;;;;;5032948;28;20013;-84
2021/05/13 10:13:06;;;;;;;10.18;6.45;;;24.00;34.50;;;;;;5056621;28;20536;-82
2021/05/13 10:15:35;;;;;;;6.75;5.60;;;23.60;34.40;;;;;;5056517;28;20021;-85
2021/05/13 10:18:06;;;;;;;10.68;6.55;;;22.50;36.10;;;;;;5037642;28;20028;-82
2021/05/13 10:20:33;;;;;;;9.07;6.43;;;21.90;37.40;;;;;;5057172;28;20032;-82
2021/05/13 10:22:59;;;;;;;16.70;7.93;;;21.40;39.40;;;;;;5056340;28;20083;-83
2021/05/13 10:25:31;;;;;;;11.65;7.32;;;21.50;39.20;;;;;;5055817;28;20095;-83
2021/05/13 10:27:58;;;;;;;14.98;9.85;;;21.30;39.30;;;;;;5056018;28;20028;-83
2021/05/13 10:30:29;;;;;;;11.10;6.53;;;21.50;39.60;;;;;;5055322;28;20096;-83
2021/05/13 10:33:20;;;;;;;7.43;4.65;;;21.90;39.00;;;;;;5057081;28;20021;-84
2021/05/13 10:36:08;;;;;;;8.20;4.65;;;22.20;38.40;;;;;;5045312;28;20505;-83
2021/05/13 10:38:43;;;;;;;14.00;8.57;;;22.70;37.50;;;;;;5063331;28;20363;-82
2021/05/13 10:41:31;;;;;;;21.05;5.90;;;23.00;36.70;;;;;;5069902;28;20037;-83
2021/05/13 10:43:59;;;;;;;9.32;5.00;;;23.00;36.30;;;;;;5058863;28;20355;-83
2021/05/13 10:46:32;;;;;;;8.70;4.97;;;23.20;36.80;;;;;;5055498;28;20032;-84
2021/05/13 10:49:27;;;;;;;16.98;7.50;;;23.50;36.50;;;;;;5023757;28;20040;-82
2021/05/13 10:51:55;;;;;;;10.30;4.45;;;22.90;36.30;;;;;;5033643;28;20506;-80
2021/05/13 10:54:27;;;;;;;5.45;3.33;;;22.70;37.30;;;;;;5036958;28;20028;-83
2021/05/13 10:57:12;;;;;;;6.25;4.57;;;22.10;38.30;;;;;;5054755;28;20075;-83
2021/05/13 10:59:38;;;;;;;10.95;7.93;;;21.80;39.40;;;;;;5037508;28;20078;-84
2021/05/13 11:02:04;;;;;;;11.85;9.35;;;21.40;40.70;;;;;;5054453;28;20112;-83
2021/05/13 11:04:30;;;;;;;18.75;11.10;;;21.20;41.50;;;;;;5054312;28;20036;-83
2021/05/13 11:10:50;;;;;;;18.45;9.60;;;20.30;44.80;;;;;;5023436;28;20402;-82
2021/05/13 11:13:17;;;;;;;10.57;5.53;;;19.90;44.40;;;;;;5044034;28;20032;-83
2021/05/13 11:15:51;;;;;;;10.50;5.23;;;19.60;44.90;;;;;;5054655;28;20017;-83
2021/05/13 11:18:25;;;;;;;10.20;4.65;;;19.50;45.80;;;;;;5054903;28;20021;-83
2021/05/13 11:20:56;;;;;;;5.53;2.92;;;19.60;45.20;;;;;;5054601;28;20045;-83
2021/05/13 11:23:31;;;;;;;4.30;2.10;;;19.80;45.90;;;;;;5055496;28;20021;-84
2021/05/13 11:26:02;;;;;;;9.60;3.50;;;19.90;45.30;;;;;;5044564;28;20040;-81
2021/05/13 11:28:39;;;;;;;4.25;2.17;;;19.70;46.10;;;;;;5066535;28;20017;-81
2021/05/13 11:31:05;;;;;;;3.67;1.88;;;19.60;46.50;;;;;;5027073;28;20117;-82
2021/05/13 11:33:58;;;;;;;7.05;2.40;;;19.60;45.50;;;;;;5050719;28;20055;-82
2021/05/13 11:36:28;;;;;;;6.80;2.25;;;19.80;45.00;;;;;;5051373;28;20029;-81
2021/05/13 11:39:00;;;;;;;5.68;3.45;;;19.80;44.90;;;;;;5054662;28;20470;-81
2021/05/13 11:41:26;;;;;;;4.93;3.03;;;19.90;44.40;;;;;;5043278;28;20609;-82
2021/05/13 11:43:52;;;;;;;7.53;3.92;;;19.70;44.30;;;;;;5051877;28;20017;-82
2021/05/13 11:46:20;;;;;;;4.15;2.47;;;19.60;43.90;;;;;;5055661;28;20021;-82
2021/05/13 11:48:48;;;;;;;4.72;2.25;;;19.30;43.60;;;;;;5054517;28;20020;-82
2021/05/13 11:51:24;;;;;;;5.43;2.67;;;19.00;44.60;;;;;;5054015;28;20035;-82
2021/05/13 11:53:54;;;;;;;7.82;3.22;;;18.80;45.30;;;;;;5054576;28;20090;-81
2021/05/13 11:56:20;;;;;;;7.43;3.58;;;18.90;46.10;;;;;;5054672;28;20478;-83
2021/05/13 11:58:54;;;;;;;6.80;3.10;;;18.90;45.40;;;;;;5054563;28;20025;-82
2021/05/13 12:01:37;;;;;;;5.43;2.53;;;18.90;45.70;;;;;;5042570;28;20065;-82
2021/05/13 12:04:04;;;;;;;4.97;2.22;;;18.80;45.60;;;;;;5054365;28;20407;-82
2021/05/13 12:06:46;;;;;;;6.57;2.75;;;18.80;46.30;;;;;;5053539;28;20021;-81
2021/05/13 12:09:14;;;;;;;6.63;3.25;;;19.00;46.20;;;;;;5042166;28;20513;-82
2021/05/13 12:11:41;;;;;;;4.95;2.80;;;19.20;45.90;;;;;;5054426;28;20372;-82
2021/05/13 12:14:16;;;;;;;5.75;2.83;;;19.30;45.40;;;;;;5053751;28;20111;-83
2021/05/13 12:16:42;;;;;;;6.30;3.28;;;19.40;45.10;;;;;;5054462;28;20394;-83
2021/05/13 12:19:13;;;;;;;6.22;2.45;;;19.40;45.00;;;;;;5053683;28;20028;-83
2021/05/13 12:21:40;;;;;;;2.90;2.13;;;19.50;45.00;;;;;;5035412;28;20117;-84
2021/05/13 12:24:08;;;;;;;8.00;3.38;;;19.70;44.60;;;;;;5053327;28;20027;-82
2021/05/13 12:26:40;;;;;;;5.68;2.55;;;19.60;44.70;;;;;;5053343;28;20045;-82
2021/05/13 12:29:12;;;;;;;5.13;2.60;;;19.60;45.00;;;;;;5055035;28;20485;-83
2021/05/13 12:31:41;;;;;;;4.45;2.70;;;19.70;45.20;;;;;;5016159;28;20033;-84
2021/05/13 12:34:07;;;;;;;3.90;2.78;;;19.70;46.00;;;;;;5054050;28;20056;-82
2021/05/13 12:36:35;;;;;;;2.40;2.15;;;19.90;45.80;;;;;;5036650;28;20033;-83
2021/05/13 12:39:03;;;;;;;5.95;2.97;;;19.70;46.20;;;;;;5035717;28;20079;-81
2021/05/13 12:41:28;;;;;;;;;;;19.40;47.30;;;;;;5035837;28;20021;-82
2021/05/13 12:44:05;;;;;;;4.93;2.25;;;18.90;48.10;;;;;;5032937;28;19905;-82
2021/05/13 12:46:31;;;;;;;6.10;2.75;;;18.50;49.90;;;;;;5025523;28;20040;-84
2021/05/13 12:48:58;;;;;;;6.25;2.97;;;18.50;51.10;;;;;;5053003;28;20025;-84
2021/05/13 12:51:25;;;;;;;7.70;3.33;;;18.60;51.30;;;;;;5058506;28;20044;-82
2021/05/13 12:53:54;;;;;;;9.02;3.30;;;18.60;51.40;;;;;;5068484;28;20024;-84
2021/05/13 12:56:29;;;;;;;4.45;2.58;;;18.70;51.50;;;;;;5064158;28;20021;-82
2021/05/13 12:59:03;;;;;;;8.40;3.67;;;18.40;51.60;;;;;;5037451;28;20425;-81
2021/05/13 13:01:29;;;;;;;9.35;3.67;;;18.20;52.30;;;;;;5053035;28;20025;-81